sensor_id;sensor_type;location;lat;lon;timestamp;P1;durP1;ratioP1;P2;durP2;ratioP2
18499;SDS011;9379;52.134;11.576;2023-04-12T00:00:06;4.75;;;3.15;;
18499;SDS011;9379;52.134;11.576;2023-04-12T00:02:35;3.03;;;2.67;;
18499;SDS011;9379;52.134;11.576;2023-04-12T00:05:04;4.60;;;3.25;;
18499;SDS011;9379;52.134;11.576;2023-04-12T00:07:33;2.78;;;2.58;;
18499;SDS011;9379;52.134;11.576;2023-04-12T00:10:02;3.10;;;2.65;;
18499;SDS011;9379;52.134;11.576;2023-04-12T00:12:33;2.92;;;2.28;;
18499;SDS011;9379;52.134;11.576;2023-04-12T00:15:00;2.60;;;2.40;;
18499;SDS011;9379;52.134;11.576;2023-04-12T00:17:26;4.07;;;2.20;;
18499;SDS011;9379;52.134;11.576;2023-04-12T00:19:53;2.55;;;2.35;;
18499;SDS011;9379;52.134;11.576;2023-04-12T00:22:24;2.78;;;2.58;;
18499;SDS011;9379;52.134;11.576;2023-04-12T00:24:52;3.05;;;2.85;;
18499;SDS011;9379;52.134;11.576;2023-04-12T00:27:19;2.40;;;2.20;;
18499;SDS011;9379;52.134;11.576;2023-04-12T00:29:46;2.72;;;2.53;;
18499;SDS011;9379;52.134;11.576;2023-04-12T00:32:12;2.33;;;2.10;;
18499;SDS011;9379;52.134;11.576;2023-04-12T00:34:39;2.70;;;2.47;;
18499;SDS011;9379;52.134;11.576;2023-04-12T00:37:06;2.90;;;2.70;;
18499;SDS011;9379;52.134;11.576;2023-04-12T00:39:35;3.22;;;2.95;;
18499;SDS011;9379;52.134;11.576;2023-04-12T00:42:02;2.38;;;2.28;;
18499;SDS011;9379;52.134;11.576;2023-04-12T00:44:29;2.75;;;2.47;;
18499;SDS011;9379;52.134;11.576;2023-04-12T00:46:56;2.50;;;2.33;;
18499;SDS011;9379;52.134;11.576;2023-04-12T00:49:23;3.30;;;2.47;;
18499;SDS011;9379;52.134;11.576;2023-04-12T00:51:55;2.60;;;2.10;;
18499;SDS011;9379;52.134;11.576;2023-04-12T00:54:27;5.30;;;2.38;;
18499;SDS011;9379;52.134;11.576;2023-04-12T00:56:55;3.10;;;2.50;;
18499;SDS011;9379;52.134;11.576;2023-04-12T00:59:22;3.70;;;2.40;;
18499;SDS011;9379;52.134;11.576;2023-04-12T01:01:49;4.75;;;2.60;;
18499;SDS011;9379;52.134;11.576;2023-04-12T01:04:16;2.00;;;1.90;;
18499;SDS011;9379;52.134;11.576;2023-04-12T01:06:49;3.53;;;2.30;;
18499;SDS011;9379;52.134;11.576;2023-04-12T01:09:30;2.28;;;2.17;;
18499;SDS011;9379;52.134;11.576;2023-04-12T01:12:05;3.20;;;2.72;;
18499;SDS011;9379;52.134;11.576;2023-04-12T01:14:41;2.33;;;2.13;;
18499;SDS011;9379;52.134;11.576;2023-04-12T01:17:17;2.50;;;2.30;;
18499;SDS011;9379;52.134;11.576;2023-04-12T01:19:52;2.70;;;2.53;;
18499;SDS011;9379;52.134;11.576;2023-04-12T01:22:28;3.90;;;2.25;;
18499;SDS011;9379;52.134;11.576;2023-04-12T01:25:03;2.40;;;2.20;;
18499;SDS011;9379;52.134;11.576;2023-04-12T01:27:51;5.90;;;2.95;;
18499;SDS011;9379;52.134;11.576;2023-04-12T01:30:19;5.10;;;2.80;;
18499;SDS011;9379;52.134;11.576;2023-04-12T01:32:48;3.63;;;2.22;;
18499;SDS011;9379;52.134;11.576;2023-04-12T01:35:19;1.77;;;1.67;;
18499;SDS011;9379;52.134;11.576;2023-04-12T01:37:48;5.28;;;2.50;;
18499;SDS011;9379;52.134;11.576;2023-04-12T01:40:15;2.42;;;2.00;;
18499;SDS011;9379;52.134;11.576;2023-04-12T01:42:44;3.90;;;2.78;;
18499;SDS011;9379;52.134;11.576;2023-04-12T01:45:12;2.33;;;1.90;;
18499;SDS011;9379;52.134;11.576;2023-04-12T01:47:39;3.88;;;2.30;;
18499;SDS011;9379;52.134;11.576;2023-04-12T01:50:10;2.53;;;2.33;;
18499;SDS011;9379;52.134;11.576;2023-04-12T01:52:42;3.03;;;2.63;;
18499;SDS011;9379;52.134;11.576;2023-04-12T01:55:14;2.60;;;2.40;;
18499;SDS011;9379;52.134;11.576;2023-04-12T01:57:43;4.18;;;1.92;;
18499;SDS011;9379;52.134;11.576;2023-04-12T02:00:13;5.68;;;2.38;;
18499;SDS011;9379;52.134;11.576;2023-04-12T02:02:42;4.13;;;3.60;;
18499;SDS011;9379;52.134;11.576;2023-04-12T02:05:08;2.63;;;2.42;;
18499;SDS011;9379;52.134;11.576;2023-04-12T02:07:36;2.15;;;1.95;;
18499;SDS011;9379;52.134;11.576;2023-04-12T02:10:04;4.22;;;2.58;;
18499;SDS011;9379;52.134;11.576;2023-04-12T02:12:31;3.00;;;2.80;;
18499;SDS011;9379;52.134;11.576;2023-04-12T02:14:58;3.08;;;2.83;;
18499;SDS011;9379;52.134;11.576;2023-04-12T02:17:26;5.55;;;3.10;;
18499;SDS011;9379;52.134;11.576;2023-04-12T02:19:54;2.72;;;2.50;;
18499;SDS011;9379;52.134;11.576;2023-04-12T02:22:21;3.30;;;2.58;;
18499;SDS011;9379;52.134;11.576;2023-04-12T02:24:48;3.28;;;3.08;;
18499;SDS011;9379;52.134;11.576;2023-04-12T02:27:16;2.97;;;2.40;;
18499;SDS011;9379;52.134;11.576;2023-04-12T02:29:43;4.30;;;2.95;;
18499;SDS011;9379;52.134;11.576;2023-04-12T02:32:09;2.78;;;2.22;;
18499;SDS011;9379;52.134;11.576;2023-04-12T02:34:38;4.43;;;2.70;;
18499;SDS011;9379;52.134;11.576;2023-04-12T02:37:06;3.53;;;3.22;;
18499;SDS011;9379;52.134;11.576;2023-04-12T02:39:33;3.22;;;2.92;;
18499;SDS011;9379;52.134;11.576;2023-04-12T02:42:02;3.35;;;2.42;;
18499;SDS011;9379;52.134;11.576;2023-04-12T02:44:29;2.40;;;2.20;;
18499;SDS011;9379;52.134;11.576;2023-04-12T02:46:56;2.90;;;2.70;;
18499;SDS011;9379;52.134;11.576;2023-04-12T02:49:23;6.00;;;2.88;;
18499;SDS011;9379;52.134;11.576;2023-04-12T02:51:51;3.17;;;2.88;;
18499;SDS011;9379;52.134;11.576;2023-04-12T02:54:18;2.63;;;2.42;;
18499;SDS011;9379;52.134;11.576;2023-04-12T02:56:45;4.15;;;3.80;;
18499;SDS011;9379;52.134;11.576;2023-04-12T02:59:12;3.70;;;3.40;;
18499;SDS011;9379;52.134;11.576;2023-04-12T03:01:39;4.25;;;2.72;;
18499;SDS011;9379;52.134;11.576;2023-04-12T03:04:10;3.28;;;2.58;;
18499;SDS011;9379;52.134;11.576;2023-04-12T03:06:37;3.67;;;2.63;;
18499;SDS011;9379;52.134;11.576;2023-04-12T03:09:19;3.10;;;2.88;;
18499;SDS011;9379;52.134;11.576;2023-04-12T03:11:46;4.18;;;3.50;;
18499;SDS011;9379;52.134;11.576;2023-04-12T03:14:12;4.28;;;3.75;;
18499;SDS011;9379;52.134;11.576;2023-04-12T03:16:39;2.83;;;2.63;;
18499;SDS011;9379;52.134;11.576;2023-04-12T03:19:06;3.67;;;3.38;;
18499;SDS011;9379;52.134;11.576;2023-04-12T03:21:33;6.07;;;3.55;;
18499;SDS011;9379;52.134;11.576;2023-04-12T03:23:59;3.08;;;2.83;;
18499;SDS011;9379;52.134;11.576;2023-04-12T03:26:29;4.55;;;2.80;;
18499;SDS011;9379;52.134;11.576;2023-04-12T03:28:58;4.20;;;2.10;;
18499;SDS011;9379;52.134;11.576;2023-04-12T03:31:29;3.58;;;2.50;;
18499;SDS011;9379;52.134;11.576;2023-04-12T03:33:56;3.00;;;2.70;;
18499;SDS011;9379;52.134;11.576;2023-04-12T03:36:22;3.45;;;3.15;;
18499;SDS011;9379;52.134;11.576;2023-04-12T03:38:51;4.47;;;4.10;;
18499;SDS011;9379;52.134;11.576;2023-04-12T03:41:17;3.67;;;3.15;;
18499;SDS011;9379;52.134;11.576;2023-04-12T03:43:48;3.55;;;3.25;;
18499;SDS011;9379;52.134;11.576;2023-04-12T03:46:14;3.25;;;2.95;;
18499;SDS011;9379;52.134;11.576;2023-04-12T03:48:42;4.03;;;3.55;;
18499;SDS011;9379;52.134;11.576;2023-04-12T03:51:08;3.80;;;3.50;;
18499;SDS011;9379;52.134;11.576;2023-04-12T03:53:36;6.20;;;4.30;;
18499;SDS011;9379;52.134;11.576;2023-04-12T03:56:03;3.38;;;3.08;;
18499;SDS011;9379;52.134;11.576;2023-04-12T03:58:30;8.18;;;4.63;;
18499;SDS011;9379;52.134;11.576;2023-04-12T04:00:59;7.05;;;4.65;;
18499;SDS011;9379;52.134;11.576;2023-04-12T04:03:28;4.72;;;3.03;;
18499;SDS011;9379;52.134;11.576;2023-04-12T04:05:54;3.35;;;3.05;;
18499;SDS011;9379;52.134;11.576;2023-04-12T04:08:21;4.68;;;3.95;;
18499;SDS011;9379;52.134;11.576;2023-04-12T04:10:48;5.63;;;4.20;;
18499;SDS011;9379;52.134;11.576;2023-04-12T04:13:16;3.72;;;3.35;;
18499;SDS011;9379;52.134;11.576;2023-04-12T04:15:43;3.80;;;3.55;;
18499;SDS011;9379;52.134;11.576;2023-04-12T04:18:11;4.97;;;3.90;;
18499;SDS011;9379;52.134;11.576;2023-04-12T04:20:38;4.63;;;4.22;;
18499;SDS011;9379;52.134;11.576;2023-04-12T04:23:05;5.28;;;4.30;;
18499;SDS011;9379;52.134;11.576;2023-04-12T04:25:34;5.25;;;4.50;;
18499;SDS011;9379;52.134;11.576;2023-04-12T04:28:03;4.50;;;4.10;;
18499;SDS011;9379;52.134;11.576;2023-04-12T04:30:30;4.50;;;4.20;;
18499;SDS011;9379;52.134;11.576;2023-04-12T04:32:58;5.63;;;5.00;;
18499;SDS011;9379;52.134;11.576;2023-04-12T04:35:26;4.25;;;3.95;;
18499;SDS011;9379;52.134;11.576;2023-04-12T04:37:56;5.85;;;5.25;;
18499;SDS011;9379;52.134;11.576;2023-04-12T04:40:23;4.80;;;4.40;;
18499;SDS011;9379;52.134;11.576;2023-04-12T04:42:50;5.47;;;4.90;;
18499;SDS011;9379;52.134;11.576;2023-04-12T04:45:18;9.65;;;6.63;;
18499;SDS011;9379;52.134;11.576;2023-04-12T04:47:53;6.10;;;5.60;;
18499;SDS011;9379;52.134;11.576;2023-04-12T04:50:21;5.45;;;4.95;;
18499;SDS011;9379;52.134;11.576;2023-04-12T04:52:49;5.88;;;5.38;;
18499;SDS011;9379;52.134;11.576;2023-04-12T04:55:16;8.30;;;7.47;;
18499;SDS011;9379;52.134;11.576;2023-04-12T04:57:43;9.52;;;6.40;;
18499;SDS011;9379;52.134;11.576;2023-04-12T05:00:10;6.47;;;5.90;;
18499;SDS011;9379;52.134;11.576;2023-04-12T05:02:38;9.07;;;6.35;;
18499;SDS011;9379;52.134;11.576;2023-04-12T05:05:07;6.28;;;5.68;;
18499;SDS011;9379;52.134;11.576;2023-04-12T05:07:34;7.70;;;6.13;;
18499;SDS011;9379;52.134;11.576;2023-04-12T05:10:03;5.43;;;4.97;;
18499;SDS011;9379;52.134;11.576;2023-04-12T05:12:30;5.53;;;5.03;;
18499;SDS011;9379;52.134;11.576;2023-04-12T05:14:58;6.20;;;5.47;;
18499;SDS011;9379;52.134;11.576;2023-04-12T05:17:25;5.13;;;4.70;;
18499;SDS011;9379;52.134;11.576;2023-04-12T05:19:52;5.78;;;5.15;;
18499;SDS011;9379;52.134;11.576;2023-04-12T05:22:19;5.93;;;3.95;;
18499;SDS011;9379;52.134;11.576;2023-04-12T05:24:46;4.80;;;4.35;;
18499;SDS011;9379;52.134;11.576;2023-04-12T05:27:14;4.72;;;4.13;;
18499;SDS011;9379;52.134;11.576;2023-04-12T05:29:41;5.13;;;4.55;;
18499;SDS011;9379;52.134;11.576;2023-04-12T05:32:08;6.03;;;5.53;;
18499;SDS011;9379;52.134;11.576;2023-04-12T05:34:35;6.32;;;5.32;;
18499;SDS011;9379;52.134;11.576;2023-04-12T05:37:02;5.63;;;3.90;;
18499;SDS011;9379;52.134;11.576;2023-04-12T05:39:29;4.57;;;3.75;;
18499;SDS011;9379;52.134;11.576;2023-04-12T05:41:56;4.45;;;4.05;;
18499;SDS011;9379;52.134;11.576;2023-04-12T05:44:24;5.13;;;4.30;;
18499;SDS011;9379;52.134;11.576;2023-04-12T05:46:51;5.85;;;3.72;;
18499;SDS011;9379;52.134;11.576;2023-04-12T05:49:18;5.88;;;4.88;;
18499;SDS011;9379;52.134;11.576;2023-04-12T05:51:45;5.40;;;4.90;;
18499;SDS011;9379;52.134;11.576;2023-04-12T05:54:11;6.32;;;4.70;;
18499;SDS011;9379;52.134;11.576;2023-04-12T05:56:39;4.90;;;4.43;;
18499;SDS011;9379;52.134;11.576;2023-04-12T05:59:06;4.20;;;3.78;;
18499;SDS011;9379;52.134;11.576;2023-04-12T06:01:36;6.80;;;3.67;;
18499;SDS011;9379;52.134;11.576;2023-04-12T06:04:06;4.65;;;3.28;;
18499;SDS011;9379;52.134;11.576;2023-04-12T06:06:36;4.15;;;3.60;;
18499;SDS011;9379;52.134;11.576;2023-04-12T06:09:03;4.18;;;3.78;;
18499;SDS011;9379;52.134;11.576;2023-04-12T06:11:30;3.33;;;3.03;;
18499;SDS011;9379;52.134;11.576;2023-04-12T06:13:57;3.40;;;3.10;;
18499;SDS011;9379;52.134;11.576;2023-04-12T06:16:24;2.75;;;2.55;;
18499;SDS011;9379;52.134;11.576;2023-04-12T06:18:52;7.13;;;3.38;;
18499;SDS011;9379;52.134;11.576;2023-04-12T06:21:19;3.17;;;2.97;;
18499;SDS011;9379;52.134;11.576;2023-04-12T06:23:46;3.90;;;2.80;;
18499;SDS011;9379;52.134;11.576;2023-04-12T06:26:13;2.47;;;2.30;;
18499;SDS011;9379;52.134;11.576;2023-04-12T06:28:41;4.82;;;3.20;;
18499;SDS011;9379;52.134;11.576;2023-04-12T06:31:09;3.63;;;3.28;;
18499;SDS011;9379;52.134;11.576;2023-04-12T06:33:36;3.22;;;2.92;;
18499;SDS011;9379;52.134;11.576;2023-04-12T06:36:04;4.18;;;2.80;;
18499;SDS011;9379;52.134;11.576;2023-04-12T06:38:32;2.35;;;2.20;;
18499;SDS011;9379;52.134;11.576;2023-04-12T06:40:59;3.20;;;2.90;;
18499;SDS011;9379;52.134;11.576;2023-04-12T06:43:25;2.85;;;2.65;;
18499;SDS011;9379;52.134;11.576;2023-04-12T06:45:52;3.80;;;3.45;;
18499;SDS011;9379;52.134;11.576;2023-04-12T06:48:21;3.22;;;3.00;;
18499;SDS011;9379;52.134;11.576;2023-04-12T06:50:50;2.85;;;2.58;;
18499;SDS011;9379;52.134;11.576;2023-04-12T06:53:19;3.70;;;2.83;;
18499;SDS011;9379;52.134;11.576;2023-04-12T06:55:45;6.32;;;2.67;;
18499;SDS011;9379;52.134;11.576;2023-04-12T06:58:12;2.28;;;2.08;;
18499;SDS011;9379;52.134;11.576;2023-04-12T07:00:39;4.03;;;3.10;;
18499;SDS011;9379;52.134;11.576;2023-04-12T07:03:07;2.83;;;2.20;;
18499;SDS011;9379;52.134;11.576;2023-04-12T07:05:36;8.68;;;3.17;;
18499;SDS011;9379;52.134;11.576;2023-04-12T07:08:03;4.60;;;3.28;;
18499;SDS011;9379;52.134;11.576;2023-04-12T07:10:31;3.33;;;3.13;;
18499;SDS011;9379;52.134;11.576;2023-04-12T07:13:00;3.30;;;2.95;;
18499;SDS011;9379;52.134;11.576;2023-04-12T07:15:31;4.57;;;2.72;;
18499;SDS011;9379;52.134;11.576;2023-04-12T07:17:57;3.85;;;2.88;;
18499;SDS011;9379;52.134;11.576;2023-04-12T07:20:24;7.63;;;3.75;;
18499;SDS011;9379;52.134;11.576;2023-04-12T07:22:51;2.10;;;2.00;;
18499;SDS011;9379;52.134;11.576;2023-04-12T07:25:18;2.85;;;2.60;;
18499;SDS011;9379;52.134;11.576;2023-04-12T07:27:46;3.85;;;2.08;;
18499;SDS011;9379;52.134;11.576;2023-04-12T07:30:13;2.88;;;2.67;;
18499;SDS011;9379;52.134;11.576;2023-04-12T07:32:40;2.50;;;2.30;;
18499;SDS011;9379;52.134;11.576;2023-04-12T07:35:07;7.30;;;2.45;;
18499;SDS011;9379;52.134;11.576;2023-04-12T07:37:34;2.53;;;2.33;;
18499;SDS011;9379;52.134;11.576;2023-04-12T07:40:01;3.45;;;2.70;;
18499;SDS011;9379;52.134;11.576;2023-04-12T07:42:28;4.35;;;3.95;;
18499;SDS011;9379;52.134;11.576;2023-04-12T07:44:56;6.82;;;2.58;;
18499;SDS011;9379;52.134;11.576;2023-04-12T07:47:23;3.20;;;2.90;;
18499;SDS011;9379;52.134;11.576;2023-04-12T07:49:50;3.33;;;2.65;;
18499;SDS011;9379;52.134;11.576;2023-04-12T07:52:17;3.92;;;2.30;;
18499;SDS011;9379;52.134;11.576;2023-04-12T07:54:44;4.90;;;3.15;;
18499;SDS011;9379;52.134;11.576;2023-04-12T07:57:10;4.03;;;2.67;;
18499;SDS011;9379;52.134;11.576;2023-04-12T07:59:37;11.77;;;3.45;;
18499;SDS011;9379;52.134;11.576;2023-04-12T08:02:05;4.47;;;2.30;;
18499;SDS011;9379;52.134;11.576;2023-04-12T08:04:32;3.15;;;2.72;;
18499;SDS011;9379;52.134;11.576;2023-04-12T08:06:59;5.32;;;1.80;;
18499;SDS011;9379;52.134;11.576;2023-04-12T08:09:26;3.55;;;2.63;;
18499;SDS011;9379;52.134;11.576;2023-04-12T08:11:52;5.57;;;2.65;;
18499;SDS011;9379;52.134;11.576;2023-04-12T08:14:21;2.40;;;2.20;;
18499;SDS011;9379;52.134;11.576;2023-04-12T08:16:47;3.70;;;2.53;;
18499;SDS011;9379;52.134;11.576;2023-04-12T08:19:16;4.35;;;2.78;;
18499;SDS011;9379;52.134;11.576;2023-04-12T08:21:43;3.70;;;2.00;;
18499;SDS011;9379;52.134;11.576;2023-04-12T08:24:10;3.92;;;3.58;;
18499;SDS011;9379;52.134;11.576;2023-04-12T08:26:37;7.45;;;3.75;;
18499;SDS011;9379;52.134;11.576;2023-04-12T08:29:04;5.85;;;2.83;;
18499;SDS011;9379;52.134;11.576;2023-04-12T08:31:31;2.65;;;2.03;;
18499;SDS011;9379;52.134;11.576;2023-04-12T08:33:58;2.47;;;2.08;;
18499;SDS011;9379;52.134;11.576;2023-04-12T08:36:26;2.63;;;2.42;;
18499;SDS011;9379;52.134;11.576;2023-04-12T08:38:56;5.82;;;2.80;;
18499;SDS011;9379;52.134;11.576;2023-04-12T08:41:24;2.20;;;2.03;;
18499;SDS011;9379;52.134;11.576;2023-04-12T08:43:51;5.18;;;3.42;;
18499;SDS011;9379;52.134;11.576;2023-04-12T08:46:19;2.38;;;2.15;;
18499;SDS011;9379;52.134;11.576;2023-04-12T08:48:47;3.42;;;3.13;;
18499;SDS011;9379;52.134;11.576;2023-04-12T08:51:18;2.33;;;2.22;;
18499;SDS011;9379;52.134;11.576;2023-04-12T08:53:48;5.85;;;3.53;;
18499;SDS011;9379;52.134;11.576;2023-04-12T08:56:15;3.42;;;2.63;;
18499;SDS011;9379;52.134;11.576;2023-04-12T08:58:44;4.72;;;2.30;;
18499;SDS011;9379;52.134;11.576;2023-04-12T09:01:13;4.45;;;2.42;;
18499;SDS011;9379;52.134;11.576;2023-04-12T09:03:41;10.05;;;3.35;;
18499;SDS011;9379;52.134;11.576;2023-04-12T09:06:08;5.97;;;2.58;;
18499;SDS011;9379;52.134;11.576;2023-04-12T09:08:36;5.25;;;2.80;;
18499;SDS011;9379;52.134;11.576;2023-04-12T09:11:13;3.22;;;2.72;;
18499;SDS011;9379;52.134;11.576;2023-04-12T09:13:47;3.60;;;2.78;;
18499;SDS011;9379;52.134;11.576;2023-04-12T09:16:14;2.70;;;2.25;;
18499;SDS011;9379;52.134;11.576;2023-04-12T09:18:46;2.65;;;2.35;;
18499;SDS011;9379;52.134;11.576;2023-04-12T09:21:13;6.45;;;3.63;;
18499;SDS011;9379;52.134;11.576;2023-04-12T09:23:40;8.77;;;2.42;;
18499;SDS011;9379;52.134;11.576;2023-04-12T09:26:07;9.38;;;2.63;;
18499;SDS011;9379;52.134;11.576;2023-04-12T09:28:36;2.67;;;2.45;;
18499;SDS011;9379;52.134;11.576;2023-04-12T09:31:09;5.53;;;2.63;;
18499;SDS011;9379;52.134;11.576;2023-04-12T09:33:41;3.67;;;2.67;;
18499;SDS011;9379;52.134;11.576;2023-04-12T09:36:08;4.88;;;2.40;;
18499;SDS011;9379;52.134;11.576;2023-04-12T09:38:38;7.93;;;3.78;;
18499;SDS011;9379;52.134;11.576;2023-04-12T09:41:16;9.40;;;2.67;;
18499;SDS011;9379;52.134;11.576;2023-04-12T09:43:46;2.72;;;2.05;;
18499;SDS011;9379;52.134;11.576;2023-04-12T09:46:13;6.28;;;2.92;;
18499;SDS011;9379;52.134;11.576;2023-04-12T09:48:40;3.83;;;2.40;;
18499;SDS011;9379;52.134;11.576;2023-04-12T09:51:22;5.13;;;3.47;;
18499;SDS011;9379;52.134;11.576;2023-04-12T09:53:50;4.97;;;2.88;;
18499;SDS011;9379;52.134;11.576;2023-04-12T09:56:18;2.85;;;1.55;;
18499;SDS011;9379;52.134;11.576;2023-04-12T09:58:50;3.58;;;2.08;;
18499;SDS011;9379;52.134;11.576;2023-04-12T10:01:18;3.10;;;2.78;;
18499;SDS011;9379;52.134;11.576;2023-04-12T10:03:46;2.30;;;1.77;;
18499;SDS011;9379;52.134;11.576;2023-04-12T10:06:14;3.05;;;1.85;;
18499;SDS011;9379;52.134;11.576;2023-04-12T10:08:42;7.72;;;2.40;;
18499;SDS011;9379;52.134;11.576;2023-04-12T10:11:10;3.00;;;2.70;;
18499;SDS011;9379;52.134;11.576;2023-04-12T10:13:37;2.67;;;2.40;;
18499;SDS011;9379;52.134;11.576;2023-04-12T10:16:07;10.85;;;4.63;;
18499;SDS011;9379;52.134;11.576;2023-04-12T10:18:35;5.72;;;3.95;;
18499;SDS011;9379;52.134;11.576;2023-04-12T10:21:02;1.95;;;1.58;;
18499;SDS011;9379;52.134;11.576;2023-04-12T10:23:30;1.05;;;1.05;;
18499;SDS011;9379;52.134;11.576;2023-04-12T10:25:58;2.85;;;2.17;;
18499;SDS011;9379;52.134;11.576;2023-04-12T10:28:28;3.67;;;2.38;;
18499;SDS011;9379;52.134;11.576;2023-04-12T10:30:55;6.53;;;3.17;;
18499;SDS011;9379;52.134;11.576;2023-04-12T10:33:25;2.55;;;2.08;;
18499;SDS011;9379;52.134;11.576;2023-04-12T10:35:57;9.90;;;3.70;;
18499;SDS011;9379;52.134;11.576;2023-04-12T10:38:27;7.82;;;3.88;;
18499;SDS011;9379;52.134;11.576;2023-04-12T10:41:09;5.28;;;2.90;;
18499;SDS011;9379;52.134;11.576;2023-04-12T10:43:40;2.45;;;2.25;;
18499;SDS011;9379;52.134;11.576;2023-04-12T10:49:09;4.50;;;2.13;;
18499;SDS011;9379;52.134;11.576;2023-04-12T10:51:37;5.32;;;2.03;;
18499;SDS011;9379;52.134;11.576;2023-04-12T10:56:56;6.85;;;3.78;;
18499;SDS011;9379;52.134;11.576;2023-04-12T10:59:22;3.80;;;1.92;;
18499;SDS011;9379;52.134;11.576;2023-04-12T11:04:37;1.90;;;1.80;;
18499;SDS011;9379;52.134;11.576;2023-04-12T11:07:05;3.53;;;2.58;;
18499;SDS011;9379;52.134;11.576;2023-04-12T11:09:38;2.33;;;2.05;;
18499;SDS011;9379;52.134;11.576;2023-04-12T11:12:10;3.15;;;1.90;;
18499;SDS011;9379;52.134;11.576;2023-04-12T11:14:42;2.35;;;2.15;;
18499;SDS011;9379;52.134;11.576;2023-04-12T11:17:19;4.07;;;2.25;;
18499;SDS011;9379;52.134;11.576;2023-04-12T11:19:50;7.03;;;3.50;;
18499;SDS011;9379;52.134;11.576;2023-04-12T11:22:19;4.22;;;2.05;;
18499;SDS011;9379;52.134;11.576;2023-04-12T11:24:48;3.83;;;2.30;;
18499;SDS011;9379;52.134;11.576;2023-04-12T11:27:17;5.20;;;3.28;;
18499;SDS011;9379;52.134;11.576;2023-04-12T11:29:46;2.38;;;1.90;;
18499;SDS011;9379;52.134;11.576;2023-04-12T11:32:14;4.38;;;2.42;;
18499;SDS011;9379;52.134;11.576;2023-04-12T11:34:43;3.10;;;2.45;;
18499;SDS011;9379;52.134;11.576;2023-04-12T11:37:12;2.42;;;2.22;;
18499;SDS011;9379;52.134;11.576;2023-04-12T11:39:41;3.25;;;2.53;;
18499;SDS011;9379;52.134;11.576;2023-04-12T11:42:12;4.50;;;2.28;;
18499;SDS011;9379;52.134;11.576;2023-04-12T11:44:41;3.60;;;2.45;;
18499;SDS011;9379;52.134;11.576;2023-04-12T11:47:12;6.53;;;2.85;;
18499;SDS011;9379;52.134;11.576;2023-04-12T11:49:45;3.08;;;2.80;;
18499;SDS011;9379;52.134;11.576;2023-04-12T11:52:14;7.63;;;2.95;;
18499;SDS011;9379;52.134;11.576;2023-04-12T11:54:42;3.42;;;3.22;;
18499;SDS011;9379;52.134;11.576;2023-04-12T11:57:11;5.85;;;3.20;;
18499;SDS011;9379;52.134;11.576;2023-04-12T11:59:38;3.08;;;2.78;;
18499;SDS011;9379;52.134;11.576;2023-04-12T12:02:06;3.35;;;2.25;;
18499;SDS011;9379;52.134;11.576;2023-04-12T12:04:34;5.63;;;2.60;;
18499;SDS011;9379;52.134;11.576;2023-04-12T12:07:01;4.28;;;1.95;;
18499;SDS011;9379;52.134;11.576;2023-04-12T12:09:30;6.03;;;3.22;;
18499;SDS011;9379;52.134;11.576;2023-04-12T12:11:57;7.03;;;3.47;;
18499;SDS011;9379;52.134;11.576;2023-04-12T12:14:25;4.55;;;2.63;;
18499;SDS011;9379;52.134;11.576;2023-04-12T12:16:52;6.88;;;3.33;;
18499;SDS011;9379;52.134;11.576;2023-04-12T12:19:30;5.78;;;2.53;;
18499;SDS011;9379;52.134;11.576;2023-04-12T12:22:10;3.35;;;2.22;;
18499;SDS011;9379;52.134;11.576;2023-04-12T12:24:46;3.55;;;2.55;;
18499;SDS011;9379;52.134;11.576;2023-04-12T12:27:19;2.80;;;2.60;;
18499;SDS011;9379;52.134;11.576;2023-04-12T12:29:48;6.00;;;2.50;;
18499;SDS011;9379;52.134;11.576;2023-04-12T12:32:17;2.72;;;2.45;;
18499;SDS011;9379;52.134;11.576;2023-04-12T12:34:49;4.80;;;1.70;;
18499;SDS011;9379;52.134;11.576;2023-04-12T12:37:21;3.35;;;2.63;;
18499;SDS011;9379;52.134;11.576;2023-04-12T12:40:01;2.45;;;2.17;;
18499;SDS011;9379;52.134;11.576;2023-04-12T12:42:35;4.00;;;3.55;;
18499;SDS011;9379;52.134;11.576;2023-04-12T12:45:03;5.38;;;3.60;;
18499;SDS011;9379;52.134;11.576;2023-04-12T12:47:30;5.95;;;3.55;;
18499;SDS011;9379;52.134;11.576;2023-04-12T12:49:57;11.88;;;3.78;;
18499;SDS011;9379;52.134;11.576;2023-04-12T12:52:24;2.90;;;2.28;;
18499;SDS011;9379;52.134;11.576;2023-04-12T12:54:51;3.47;;;3.17;;
18499;SDS011;9379;52.134;11.576;2023-04-12T12:57:19;5.85;;;3.22;;
18499;SDS011;9379;52.134;11.576;2023-04-12T12:59:46;6.13;;;4.53;;
18499;SDS011;9379;52.134;11.576;2023-04-12T13:02:12;5.45;;;4.03;;
18499;SDS011;9379;52.134;11.576;2023-04-12T13:04:42;3.25;;;3.03;;
18499;SDS011;9379;52.134;11.576;2023-04-12T13:07:09;5.22;;;3.42;;
18499;SDS011;9379;52.134;11.576;2023-04-12T13:09:35;3.95;;;3.28;;
18499;SDS011;9379;52.134;11.576;2023-04-12T13:12:02;5.28;;;3.20;;
18499;SDS011;9379;52.134;11.576;2023-04-12T13:14:30;3.03;;;2.80;;
18499;SDS011;9379;52.134;11.576;2023-04-12T13:16:57;3.35;;;2.05;;
18499;SDS011;9379;52.134;11.576;2023-04-12T13:19:24;5.95;;;2.05;;
18499;SDS011;9379;52.134;11.576;2023-04-12T13:21:51;2.55;;;2.35;;
18499;SDS011;9379;52.134;11.576;2023-04-12T13:24:18;2.45;;;2.25;;
18499;SDS011;9379;52.134;11.576;2023-04-12T13:26:45;2.47;;;2.28;;
18499;SDS011;9379;52.134;11.576;2023-04-12T13:29:11;3.42;;;2.55;;
18499;SDS011;9379;52.134;11.576;2023-04-12T13:31:40;2.35;;;2.17;;
18499;SDS011;9379;52.134;11.576;2023-04-12T13:34:07;4.25;;;2.35;;
18499;SDS011;9379;52.134;11.576;2023-04-12T13:36:33;5.03;;;3.70;;
18499;SDS011;9379;52.134;11.576;2023-04-12T13:39:00;3.00;;;2.70;;
18499;SDS011;9379;52.134;11.576;2023-04-12T13:41:28;3.88;;;2.75;;
18499;SDS011;9379;52.134;11.576;2023-04-12T13:43:56;5.38;;;3.20;;
18499;SDS011;9379;52.134;11.576;2023-04-12T13:46:23;3.28;;;3.03;;
18499;SDS011;9379;52.134;11.576;2023-04-12T13:48:52;2.88;;;2.67;;
18499;SDS011;9379;52.134;11.576;2023-04-12T13:51:18;6.50;;;4.63;;
18499;SDS011;9379;52.134;11.576;2023-04-12T13:53:45;4.28;;;3.88;;
18499;SDS011;9379;52.134;11.576;2023-04-12T13:56:12;2.97;;;2.75;;
18499;SDS011;9379;52.134;11.576;2023-04-12T13:58:40;5.43;;;3.33;;
18499;SDS011;9379;52.134;11.576;2023-04-12T14:01:06;3.50;;;3.20;;
18499;SDS011;9379;52.134;11.576;2023-04-12T14:03:34;3.28;;;2.97;;
18499;SDS011;9379;52.134;11.576;2023-04-12T14:06:02;5.22;;;3.20;;
18499;SDS011;9379;52.134;11.576;2023-04-12T14:08:29;3.00;;;2.72;;
18499;SDS011;9379;52.134;11.576;2023-04-12T14:10:56;4.28;;;3.80;;
18499;SDS011;9379;52.134;11.576;2023-04-12T14:13:23;2.90;;;2.70;;
18499;SDS011;9379;52.134;11.576;2023-04-12T14:15:52;2.95;;;2.75;;
18499;SDS011;9379;52.134;11.576;2023-04-12T14:18:20;4.13;;;3.35;;
18499;SDS011;9379;52.134;11.576;2023-04-12T14:20:46;3.88;;;3.58;;
18499;SDS011;9379;52.134;11.576;2023-04-12T14:23:18;6.03;;;3.05;;
18499;SDS011;9379;52.134;11.576;2023-04-12T14:25:45;4.03;;;3.60;;
18499;SDS011;9379;52.134;11.576;2023-04-12T14:28:12;4.00;;;3.70;;
18499;SDS011;9379;52.134;11.576;2023-04-12T14:30:41;3.60;;;2.65;;
18499;SDS011;9379;52.134;11.576;2023-04-12T14:33:08;4.88;;;2.88;;
18499;SDS011;9379;52.134;11.576;2023-04-12T14:35:35;3.97;;;2.83;;
18499;SDS011;9379;52.134;11.576;2023-04-12T14:38:02;2.83;;;2.47;;
18499;SDS011;9379;52.134;11.576;2023-04-12T14:40:31;3.72;;;3.40;;
18499;SDS011;9379;52.134;11.576;2023-04-12T14:42:58;4.68;;;2.72;;
18499;SDS011;9379;52.134;11.576;2023-04-12T14:45:25;3.92;;;2.63;;
18499;SDS011;9379;52.134;11.576;2023-04-12T14:47:52;3.78;;;2.78;;
18499;SDS011;9379;52.134;11.576;2023-04-12T14:50:19;3.22;;;2.40;;
18499;SDS011;9379;52.134;11.576;2023-04-12T14:52:46;3.20;;;2.95;;
18499;SDS011;9379;52.134;11.576;2023-04-12T14:55:13;3.78;;;2.97;;
18499;SDS011;9379;52.134;11.576;2023-04-12T14:57:42;4.63;;;3.22;;
18499;SDS011;9379;52.134;11.576;2023-04-12T15:00:09;3.40;;;3.08;;
18499;SDS011;9379;52.134;11.576;2023-04-12T15:02:39;4.40;;;3.90;;